createdAt,value
2023-05-03T00:00:42.106Z,3.35
2023-05-03T00:03:09.725Z,3.15
2023-05-03T00:05:37.731Z,3.30
2023-05-03T00:08:05.477Z,3.63
2023-05-03T00:10:33.099Z,3.72
2023-05-03T00:13:00.487Z,3.80
2023-05-03T00:15:28.057Z,3.97
2023-05-03T00:17:55.589Z,3.97
2023-05-03T00:20:23.218Z,4.10
2023-05-03T00:22:50.876Z,3.95
2023-05-03T00:25:18.387Z,3.95
2023-05-03T00:27:45.766Z,4.20
2023-05-03T00:30:13.504Z,5.15
2023-05-03T00:32:40.963Z,4.57
2023-05-03T00:35:08.633Z,5.25
2023-05-03T00:37:37.102Z,4.50
2023-05-03T00:40:05.693Z,4.30
2023-05-03T00:42:36.724Z,4.63
2023-05-03T00:45:06.352Z,4.65
2023-05-03T00:47:34.017Z,4.70
2023-05-03T00:50:02.005Z,5.03
2023-05-03T00:52:30.267Z,5.22
2023-05-03T00:54:58.105Z,4.75
2023-05-03T00:57:27.347Z,5.32
2023-05-03T00:59:57.069Z,4.45
2023-05-03T01:02:24.999Z,5.43
2023-05-03T01:04:53.948Z,5.47
2023-05-03T01:07:53.128Z,5.43
2023-05-03T01:10:51.341Z,5.32
2023-05-03T01:13:38.963Z,6.28
2023-05-03T01:16:14.537Z,6.78
2023-05-03T01:18:49.017Z,6.45
2023-05-03T01:21:19.933Z,7.00
2023-05-03T01:23:54.503Z,7.72
2023-05-03T01:26:24.011Z,7.35
2023-05-03T01:28:51.842Z,10.02
2023-05-03T01:31:34.589Z,9.63
2023-05-03T01:34:16.966Z,10.30
2023-05-03T01:36:45.608Z,11.73
2023-05-03T01:39:19.871Z,9.93
2023-05-03T01:41:50.540Z,9.90
2023-05-03T01:46:47.787Z,10.32
2023-05-03T01:49:15.329Z,12.00
2023-05-03T01:51:42.717Z,11.43
2023-05-03T01:54:10.123Z,10.88
2023-05-03T01:56:37.984Z,11.48
2023-05-03T01:59:05.555Z,10.95
2023-05-03T02:01:33.107Z,11.80
2023-05-03T02:04:01.382Z,12.50
2023-05-03T02:06:28.955Z,11.38
2023-05-03T02:09:00.126Z,11.88
2023-05-03T02:11:27.586Z,11.07
2023-05-03T02:13:55.022Z,12.15
2023-05-03T02:16:22.535Z,10.82
2023-05-03T02:18:51.951Z,11.55
2023-05-03T02:21:20.531Z,11.50
2023-05-03T02:23:48.339Z,11.02
2023-05-03T02:26:15.787Z,11.57
2023-05-03T02:28:43.306Z,10.25
2023-05-03T02:31:10.808Z,10.68
2023-05-03T02:33:42.795Z,12.10
2023-05-03T02:36:10.472Z,11.02
2023-05-03T02:38:37.963Z,10.77
2023-05-03T02:41:05.633Z,10.90
2023-05-03T02:43:33.023Z,10.70
2023-05-03T02:46:00.563Z,10.13
2023-05-03T02:48:28.056Z,11.70
2023-05-03T02:50:56.027Z,10.88
2023-05-03T02:53:23.494Z,12.20
2023-05-03T02:55:53.088Z,11.32
2023-05-03T02:58:20.566Z,12.15
2023-05-03T03:00:47.989Z,11.70
2023-05-03T03:03:16.412Z,11.50
2023-05-03T03:05:43.969Z,11.85
2023-05-03T03:08:11.441Z,12.95
2023-05-03T03:10:39.444Z,12.57
2023-05-03T03:13:06.956Z,12.50
2023-05-03T03:15:38.513Z,12.30
2023-05-03T03:18:06.629Z,12.85
2023-05-03T03:20:34.237Z,12.43
2023-05-03T03:23:01.675Z,13.32
2023-05-03T03:25:29.183Z,12.07
2023-05-03T03:27:58.185Z,12.27
2023-05-03T03:30:26.481Z,12.45
2023-05-03T03:33:06.720Z,11.98
2023-05-03T03:35:40.308Z,12.02
2023-05-03T03:38:09.089Z,12.10
2023-05-03T03:40:42.984Z,12.95
2023-05-03T03:43:10.420Z,12.93
2023-05-03T03:45:38.395Z,12.07
2023-05-03T03:48:06.698Z,12.18
2023-05-03T03:50:34.447Z,12.48
2023-05-03T03:53:02.003Z,13.35
2023-05-03T03:55:29.613Z,13.18
2023-05-03T03:57:58.160Z,12.50
2023-05-03T04:00:27.330Z,12.80
2023-05-03T04:03:07.777Z,11.93
2023-05-03T04:05:35.890Z,13.02
2023-05-03T04:08:03.885Z,13.15
2023-05-03T04:10:33.659Z,13.82
2023-05-03T04:13:01.441Z,12.60
2023-05-03T04:15:29.278Z,13.40
2023-05-03T04:17:59.147Z,13.65
2023-05-03T04:20:27.135Z,13.18
2023-05-03T04:22:55.409Z,13.05
2023-05-03T04:25:26.893Z,13.40
2023-05-03T04:28:01.139Z,13.57
2023-05-03T04:30:30.480Z,13.73
2023-05-03T04:33:01.389Z,14.55
2023-05-03T04:35:31.077Z,15.13
2023-05-03T04:38:01.588Z,14.65
2023-05-03T04:40:30.953Z,13.85
2023-05-03T04:43:05.926Z,14.02
2023-05-03T04:45:38.163Z,13.63
2023-05-03T04:48:08.039Z,14.27
2023-05-03T04:50:36.531Z,14.80
2023-05-03T04:53:04.946Z,14.75
2023-05-03T04:55:35.379Z,16.20
2023-05-03T04:58:04.717Z,13.35
2023-05-03T05:00:33.252Z,13.85
2023-05-03T05:03:07.237Z,13.10
2023-05-03T05:05:34.919Z,14.13
2023-05-03T05:08:03.139Z,13.73
2023-05-03T05:10:42.981Z,12.95
2023-05-03T05:13:15.312Z,14.20
2023-05-03T05:15:42.863Z,14.23
2023-05-03T05:18:12.463Z,13.38
2023-05-03T05:20:40.982Z,13.57
2023-05-03T05:23:09.038Z,14.73
2023-05-03T05:25:37.493Z,29.83
2023-05-03T05:28:05.335Z,13.85
2023-05-03T05:30:33.552Z,14.23
2023-05-03T05:33:03.596Z,13.93
2023-05-03T05:35:33.815Z,13.75
2023-05-03T05:38:01.598Z,15.48
2023-05-03T05:40:30.131Z,13.60
2023-05-03T05:42:59.404Z,14.55
2023-05-03T05:45:28.945Z,14.32
2023-05-03T05:47:57.872Z,14.68
2023-05-03T05:50:25.514Z,13.40
2023-05-03T05:52:58.132Z,14.18
2023-05-03T05:55:28.853Z,14.35
2023-05-03T05:57:57.164Z,14.57
2023-05-03T06:00:30.669Z,14.18
2023-05-03T06:02:58.150Z,14.43
2023-05-03T06:05:25.597Z,14.18
2023-05-03T06:07:54.324Z,14.52
2023-05-03T06:10:22.716Z,14.77
2023-05-03T06:12:53.107Z,14.32
2023-05-03T06:15:26.280Z,12.93
2023-05-03T06:17:54.908Z,14.70
2023-05-03T06:20:24.223Z,14.85
2023-05-03T06:22:52.785Z,14.13
2023-05-03T06:25:20.415Z,14.07
2023-05-03T06:27:49.880Z,12.43
2023-05-03T06:30:19.617Z,14.10
2023-05-03T06:32:48.777Z,13.02
2023-05-03T06:35:19.315Z,12.55
2023-05-03T06:37:47.021Z,13.00
2023-05-03T06:40:15.477Z,12.05
2023-05-03T06:42:42.869Z,11.85
2023-05-03T06:45:14.250Z,13.55
2023-05-03T06:47:43.047Z,12.60
2023-05-03T06:50:11.234Z,12.18
2023-05-03T06:52:38.786Z,12.50
2023-05-03T06:55:07.168Z,12.98
2023-05-03T06:57:34.665Z,12.57
2023-05-03T07:00:02.301Z,13.10
2023-05-03T07:02:30.163Z,12.60
2023-05-03T07:04:57.613Z,13.30
2023-05-03T07:07:24.996Z,13.07
2023-05-03T07:09:52.530Z,13.05
2023-05-03T07:12:27.591Z,13.32
2023-05-03T07:14:55.602Z,13.82
2023-05-03T07:17:24.099Z,13.05
2023-05-03T07:19:52.288Z,12.65
2023-05-03T07:22:21.362Z,13.38
2023-05-03T07:24:48.848Z,13.73
2023-05-03T07:27:16.295Z,13.27
2023-05-03T07:29:43.888Z,13.10
2023-05-03T07:32:12.297Z,12.02
2023-05-03T07:34:40.541Z,13.57
2023-05-03T07:37:07.880Z,13.43
2023-05-03T07:39:36.351Z,13.93
2023-05-03T07:42:03.785Z,14.43
2023-05-03T07:44:31.180Z,14.98
2023-05-03T07:46:58.561Z,13.10
2023-05-03T07:49:26.009Z,14.73
2023-05-03T07:51:53.362Z,14.32
2023-05-03T07:54:20.767Z,14.02
2023-05-03T07:56:48.328Z,13.35
2023-05-03T07:59:15.793Z,13.95
2023-05-03T08:01:43.676Z,15.25
2023-05-03T08:04:12.191Z,17.10
2023-05-03T08:06:39.881Z,14.85
2023-05-03T08:09:07.266Z,14.70
2023-05-03T08:11:34.863Z,13.65
2023-05-03T08:14:02.841Z,14.68
2023-05-03T08:16:30.956Z,15.30
2023-05-03T08:18:58.478Z,16.55
2023-05-03T08:21:26.206Z,16.52
2023-05-03T08:23:54.683Z,15.60
2023-05-03T08:26:24.261Z,15.77
2023-05-03T08:28:51.964Z,15.23
2023-05-03T08:31:19.420Z,14.18
2023-05-03T08:33:46.804Z,14.13
2023-05-03T08:36:14.170Z,13.27
2023-05-03T08:38:41.753Z,13.70
2023-05-03T08:41:17.383Z,12.95
2023-05-03T08:43:46.606Z,12.25
2023-05-03T08:46:14.619Z,12.38
2023-05-03T08:48:43.757Z,11.82
2023-05-03T08:51:11.583Z,9.95
2023-05-03T08:53:39.035Z,10.27
2023-05-03T08:56:10.951Z,9.35
2023-05-03T08:58:38.927Z,11.25
2023-05-03T09:01:07.720Z,10.32
2023-05-03T09:03:36.296Z,9.77
2023-05-03T09:06:18.774Z,11.63
2023-05-03T09:08:46.184Z,9.80
2023-05-03T09:11:22.742Z,8.52
2023-05-03T09:13:52.016Z,7.75
2023-05-03T09:16:29.464Z,6.60
2023-05-03T09:19:08.203Z,6.30
2023-05-03T09:21:36.876Z,7.38
2023-05-03T09:24:22.100Z,8.05
2023-05-03T09:26:51.662Z,7.47
2023-05-03T09:29:31.118Z,7.78
2023-05-03T09:32:05.388Z,7.35
2023-05-03T09:34:33.963Z,6.38
2023-05-03T09:37:01.570Z,5.43
2023-05-03T09:39:29.439Z,4.38
2023-05-03T09:41:57.182Z,3.38
2023-05-03T09:44:42.036Z,4.20
2023-05-03T09:47:10.224Z,2.90
2023-05-03T09:49:38.658Z,3.70
2023-05-03T09:52:07.807Z,2.42
2023-05-03T09:54:35.640Z,2.70
2023-05-03T09:57:05.014Z,3.55
2023-05-03T09:59:33.835Z,3.40
2023-05-03T10:02:08.808Z,2.90
2023-05-03T10:04:44.734Z,3.10
2023-05-03T10:07:14.990Z,3.38
2023-05-03T10:09:48.825Z,1.90
2023-05-03T10:12:18.750Z,1.90
2023-05-03T10:14:48.361Z,2.50
2023-05-03T10:17:39.481Z,3.85
2023-05-03T10:20:29.516Z,4.10
2023-05-03T10:23:06.483Z,4.72
2023-05-03T10:25:36.538Z,5.13
2023-05-03T10:28:05.977Z,4.57
2023-05-03T10:30:38.203Z,4.78
2023-05-03T10:33:14.654Z,5.28
2023-05-03T10:35:43.913Z,6.05
2023-05-03T10:38:20.697Z,6.10
2023-05-03T10:40:48.428Z,5.55
2023-05-03T10:43:33.584Z,4.82
2023-05-03T10:46:06.005Z,4.40
2023-05-03T10:48:34.656Z,4.18
2023-05-03T10:51:33.175Z,3.17
2023-05-03T10:54:00.644Z,3.30
2023-05-03T10:56:28.024Z,3.17
2023-05-03T10:58:58.801Z,3.47
2023-05-03T11:01:28.011Z,3.23
2023-05-03T11:04:02.620Z,3.60
2023-05-03T11:06:41.383Z,4.03
2023-05-03T11:09:12.142Z,2.05
2023-05-03T11:11:41.121Z,1.70
2023-05-03T11:14:09.660Z,1.50
2023-05-03T11:16:40.527Z,1.40
2023-05-03T11:19:08.356Z,1.40
2023-05-03T11:21:36.495Z,1.60
2023-05-03T11:24:04.006Z,1.55
2023-05-03T11:26:39.150Z,1.60
2023-05-03T11:29:10.588Z,9.68
2023-05-03T11:31:38.147Z,2.70
2023-05-03T11:34:06.832Z,1.10
2023-05-03T11:36:37.390Z,1.95
2023-05-03T11:39:06.013Z,1.65
2023-05-03T11:41:33.484Z,1.30
2023-05-03T11:44:15.321Z,1.55
2023-05-03T11:46:45.322Z,1.77
2023-05-03T11:49:18.444Z,1.35
2023-05-03T11:51:48.678Z,1.40
2023-05-03T11:54:25.467Z,0.95
2023-05-03T11:56:59.568Z,1.00
2023-05-03T11:59:39.127Z,1.20
2023-05-03T12:02:09.414Z,1.15
2023-05-03T12:04:41.614Z,1.35
2023-05-03T12:07:11.990Z,1.77
2023-05-03T12:09:41.856Z,1.85
2023-05-03T12:12:20.199Z,1.80
2023-05-03T12:15:04.536Z,2.03
2023-05-03T12:17:37.263Z,1.70
2023-05-03T12:22:57.657Z,1.23
2023-05-03T12:25:28.159Z,1.42
2023-05-03T12:28:17.855Z,1.60
2023-05-03T12:30:47.500Z,1.60
2023-05-03T12:33:21.991Z,1.83
2023-05-03T12:35:53.351Z,1.58
2023-05-03T12:38:23.896Z,1.35
2023-05-03T12:40:53.733Z,1.23
2023-05-03T12:43:21.758Z,1.63
2023-05-03T12:46:03.964Z,1.75
2023-05-03T12:48:36.890Z,1.63
2023-05-03T12:51:18.545Z,1.63
2023-05-03T12:56:15.774Z,1.67
2023-05-03T12:59:07.653Z,1.65
2023-05-03T13:06:42.850Z,1.85
2023-05-03T13:09:19.139Z,1.70
2023-05-03T13:11:50.406Z,2.13
2023-05-03T13:14:22.021Z,1.40
2023-05-03T13:16:49.669Z,1.20
2023-05-03T13:19:17.671Z,1.52
2023-05-03T13:21:48.170Z,1.73
2023-05-03T13:24:16.088Z,1.27
2023-05-03T13:26:43.560Z,1.40
2023-05-03T13:29:11.134Z,1.58
2023-05-03T13:31:38.601Z,1.27
2023-05-03T13:34:06.842Z,1.80
2023-05-03T13:36:34.209Z,1.52
2023-05-03T13:39:02.082Z,1.63
2023-05-03T13:41:29.558Z,2.00
2023-05-03T13:43:56.969Z,1.88
2023-05-03T13:46:24.779Z,1.70
2023-05-03T13:48:52.777Z,1.90
2023-05-03T13:51:20.249Z,1.50
2023-05-03T13:53:47.741Z,1.50
2023-05-03T13:56:15.284Z,1.52
2023-05-03T13:58:42.736Z,1.48
2023-05-03T14:01:10.910Z,1.17
2023-05-03T14:03:38.292Z,1.10
2023-05-03T14:06:05.827Z,1.10
2023-05-03T14:08:33.174Z,1.33
2023-05-03T14:11:00.507Z,1.33
2023-05-03T14:13:32.981Z,1.10
2023-05-03T14:16:05.210Z,1.20
2023-05-03T14:18:32.787Z,1.20
2023-05-03T14:21:00.678Z,0.80
2023-05-03T14:23:28.331Z,1.27
2023-05-03T14:25:55.774Z,1.10
2023-05-03T14:28:23.260Z,1.20
2023-05-03T14:30:51.503Z,1.13
2023-05-03T14:33:18.863Z,1.27
2023-05-03T14:35:46.498Z,1.40
2023-05-03T14:38:14.599Z,1.75
2023-05-03T14:40:43.138Z,1.60
2023-05-03T14:43:10.995Z,1.20
2023-05-03T14:45:38.380Z,1.40
2023-05-03T14:48:06.183Z,1.58
2023-05-03T14:50:33.621Z,1.90
2023-05-03T14:53:01.011Z,1.40
2023-05-03T14:55:28.474Z,1.40
2023-05-03T14:57:55.975Z,1.20
2023-05-03T15:00:23.604Z,1.38
2023-05-03T15:02:56.923Z,1.38
2023-05-03T15:05:24.500Z,1.48
2023-05-03T15:07:52.528Z,1.63
2023-05-03T15:10:19.973Z,1.70
2023-05-03T15:12:47.759Z,2.40
2023-05-03T15:15:15.858Z,1.83
2023-05-03T15:17:43.427Z,2.00
2023-05-03T15:20:15.336Z,2.20
2023-05-03T15:22:42.723Z,2.30
2023-05-03T15:25:11.782Z,2.25
2023-05-03T15:27:39.247Z,2.30
2023-05-03T15:30:07.596Z,2.33
2023-05-03T15:32:35.183Z,2.67
2023-05-03T15:35:02.674Z,2.00
2023-05-03T15:37:36.024Z,1.83
2023-05-03T15:40:09.434Z,2.08
2023-05-03T15:42:38.192Z,2.10
2023-05-03T15:45:08.589Z,2.22
2023-05-03T15:47:36.237Z,2.22
2023-05-03T15:50:04.093Z,2.78
2023-05-03T15:52:32.065Z,2.05
2023-05-03T15:54:59.412Z,2.83
2023-05-03T15:57:27.185Z,2.90
2023-05-03T15:59:54.877Z,2.60
2023-05-03T16:02:22.308Z,2.17
2023-05-03T16:04:50.664Z,2.17
2023-05-03T16:07:18.463Z,1.92
2023-05-03T16:09:46.673Z,1.90
2023-05-03T16:12:14.067Z,1.95
2023-05-03T16:14:41.517Z,2.00
2023-05-03T16:17:10.153Z,1.85
2023-05-03T16:19:37.694Z,1.75
2023-05-03T16:22:05.673Z,1.50
2023-05-03T16:24:35.941Z,1.77
2023-05-03T16:27:04.017Z,2.38
2023-05-03T16:29:33.817Z,1.83
2023-05-03T16:32:01.556Z,1.52
2023-05-03T16:34:29.158Z,2.03
2023-05-03T16:36:56.498Z,1.70
2023-05-03T16:39:23.868Z,1.98
2023-05-03T16:41:51.290Z,2.40
2023-05-03T16:44:19.302Z,2.38
2023-05-03T16:46:46.896Z,2.13
2023-05-03T16:49:15.230Z,2.50
2023-05-03T16:51:43.175Z,2.20
2023-05-03T16:54:11.928Z,4.32
2023-05-03T16:56:39.296Z,2.45
2023-05-03T16:59:07.068Z,2.45
2023-05-03T17:01:34.585Z,2.38
2023-05-03T17:04:02.249Z,16.77
2023-05-03T17:06:29.667Z,2.00
2023-05-03T17:08:57.063Z,2.22
2023-05-03T17:11:24.424Z,2.53
2023-05-03T17:13:55.030Z,2.30
2023-05-03T17:16:22.779Z,2.15
2023-05-03T17:18:50.398Z,2.10
2023-05-03T17:21:19.220Z,2.60
2023-05-03T17:23:47.025Z,3.30
2023-05-03T17:26:14.618Z,2.47
2023-05-03T17:28:43.779Z,2.78
2023-05-03T17:31:11.213Z,2.50
2023-05-03T17:33:38.649Z,4.30
2023-05-03T17:36:06.308Z,2.60
2023-05-03T17:38:34.803Z,2.78
2023-05-03T17:41:09.685Z,2.58
2023-05-03T17:43:37.742Z,2.42
2023-05-03T17:46:10.683Z,7.75
2023-05-03T17:48:39.692Z,2.42
2023-05-03T17:51:08.082Z,2.08
2023-05-03T17:53:35.623Z,2.20
2023-05-03T17:56:03.044Z,2.28
2023-05-03T17:58:30.532Z,2.17
2023-05-03T18:00:57.926Z,2.30
2023-05-03T18:03:26.606Z,2.22
2023-05-03T18:05:54.212Z,2.20
2023-05-03T18:08:21.655Z,2.40
2023-05-03T18:10:50.201Z,2.53
2023-05-03T18:13:18.032Z,2.80
2023-05-03T18:15:45.752Z,2.60
2023-05-03T18:18:13.580Z,2.58
2023-05-03T18:20:40.965Z,2.22
2023-05-03T18:23:08.974Z,2.67
2023-05-03T18:25:36.377Z,2.72
2023-05-03T18:28:03.846Z,2.97
2023-05-03T18:30:33.053Z,2.88
2023-05-03T18:33:00.563Z,2.63
2023-05-03T18:35:28.053Z,2.88
2023-05-03T18:37:55.458Z,3.03
2023-05-03T18:40:22.907Z,2.78
2023-05-03T18:42:50.328Z,2.75
2023-05-03T18:45:19.519Z,3.33
2023-05-03T18:47:47.145Z,2.47
2023-05-03T18:50:14.683Z,2.78
2023-05-03T18:52:42.047Z,2.70
2023-05-03T18:55:10.442Z,3.80
2023-05-03T18:57:38.177Z,3.38
2023-05-03T19:00:06.503Z,2.78
2023-05-03T19:02:33.898Z,2.60
2023-05-03T19:05:01.554Z,2.60
2023-05-03T19:07:29.126Z,2.60
2023-05-03T19:09:57.772Z,2.30
2023-05-03T19:12:25.436Z,2.30
2023-05-03T19:14:52.859Z,2.10
2023-05-03T19:17:20.531Z,2.20
2023-05-03T19:19:48.028Z,2.60
2023-05-03T19:22:15.513Z,2.42
2023-05-03T19:24:44.008Z,2.30
2023-05-03T19:27:11.754Z,2.63
2023-05-03T19:29:39.077Z,2.72
2023-05-03T19:32:09.447Z,2.60
2023-05-03T19:34:36.818Z,2.42
2023-05-03T19:37:05.100Z,2.90
2023-05-03T19:39:35.594Z,2.65
2023-05-03T19:42:03.974Z,2.83
2023-05-03T19:44:31.497Z,2.80
2023-05-03T19:46:58.936Z,2.78
2023-05-03T19:49:26.312Z,2.90
2023-05-03T19:51:54.051Z,2.83
2023-05-03T19:54:21.998Z,3.35
2023-05-03T19:56:49.669Z,3.35
2023-05-03T19:59:18.193Z,3.95
2023-05-03T20:01:45.703Z,4.00
2023-05-03T20:04:13.283Z,4.03
2023-05-03T20:06:40.884Z,3.78
2023-05-03T20:09:09.235Z,4.55
2023-05-03T20:11:36.703Z,3.75
2023-05-03T20:14:04.191Z,3.85
2023-05-03T20:16:34.935Z,4.32
2023-05-03T20:19:02.385Z,4.07
2023-05-03T20:21:29.817Z,5.38
2023-05-03T20:23:57.728Z,4.13
2023-05-03T20:26:25.642Z,3.47
2023-05-03T20:28:53.108Z,4.00
2023-05-03T20:31:20.543Z,24.80
2023-05-03T20:33:48.108Z,5.18
2023-05-03T20:36:15.463Z,3.70
2023-05-03T20:38:42.842Z,4.22
2023-05-03T20:41:10.254Z,4.40
2023-05-03T20:43:37.700Z,3.80
2023-05-03T20:46:05.150Z,4.68
2023-05-03T20:48:32.698Z,4.07
2023-05-03T20:51:00.851Z,5.10
2023-05-03T20:53:30.101Z,5.03
2023-05-03T20:56:00.369Z,4.85
2023-05-03T20:58:28.315Z,5.03
2023-05-03T21:00:57.707Z,4.88
2023-05-03T21:03:25.898Z,5.57
2023-05-03T21:05:53.662Z,4.93
2023-05-03T21:08:21.257Z,5.15
2023-05-03T21:10:48.692Z,4.72
2023-05-03T21:13:16.204Z,5.45
2023-05-03T21:15:43.721Z,5.38
2023-05-03T21:18:11.299Z,5.50
2023-05-03T21:20:38.917Z,5.05
2023-05-03T21:23:06.415Z,5.82
2023-05-03T21:25:33.809Z,5.43
2023-05-03T21:28:01.168Z,4.65
2023-05-03T21:30:28.682Z,4.90
2023-05-03T21:32:56.082Z,4.97
2023-05-03T21:35:25.371Z,5.10
2023-05-03T21:37:52.855Z,4.65
2023-05-03T21:40:21.255Z,4.55
2023-05-03T21:42:50.913Z,5.38
2023-05-03T21:45:18.775Z,4.78
2023-05-03T21:47:46.328Z,5.20
2023-05-03T21:50:14.077Z,6.97
2023-05-03T21:52:42.006Z,6.93
2023-05-03T21:55:09.853Z,6.32
2023-05-03T21:57:37.938Z,7.47
2023-05-03T22:00:06.416Z,7.40
2023-05-03T22:02:35.890Z,6.28
2023-05-03T22:05:03.501Z,7.05
2023-05-03T22:07:31.540Z,5.15
2023-05-03T22:09:58.914Z,3.40
2023-05-03T22:12:26.386Z,4.05
2023-05-03T22:14:54.210Z,3.70
2023-05-03T22:17:21.761Z,3.63
2023-05-03T22:19:49.212Z,3.33
2023-05-03T22:22:16.565Z,3.10
2023-05-03T22:24:43.937Z,3.30
2023-05-03T22:27:11.307Z,3.22
2023-05-03T22:29:38.730Z,3.08
2023-05-03T22:32:07.210Z,2.88
2023-05-03T22:34:34.698Z,2.60
2023-05-03T22:37:03.859Z,2.90
2023-05-03T22:39:31.853Z,2.42
2023-05-03T22:42:00.266Z,2.85
2023-05-03T22:44:27.915Z,2.50
2023-05-03T22:46:55.555Z,2.53
2023-05-03T22:49:22.937Z,2.42
2023-05-03T22:51:50.471Z,2.58
2023-05-03T22:54:17.948Z,2.20
2023-05-03T22:56:45.278Z,2.22
2023-05-03T22:59:12.677Z,2.33
2023-05-03T23:01:40.222Z,2.50
2023-05-03T23:04:07.785Z,2.45
2023-05-03T23:06:35.192Z,2.72
2023-05-03T23:09:02.648Z,2.60
2023-05-03T23:11:30.092Z,1.92
2023-05-03T23:13:57.561Z,2.42
2023-05-03T23:16:25.040Z,2.97
2023-05-03T23:18:54.218Z,2.40
2023-05-03T23:21:23.136Z,2.50
2023-05-03T23:23:50.500Z,2.33
2023-05-03T23:26:17.871Z,2.22
2023-05-03T23:28:46.245Z,2.42
2023-05-03T23:31:14.098Z,2.00
2023-05-03T23:33:41.915Z,2.50
2023-05-03T23:36:09.659Z,2.72
2023-05-03T23:38:37.230Z,2.80
2023-05-03T23:41:04.662Z,2.83
2023-05-03T23:43:32.073Z,2.60
2023-05-03T23:45:59.489Z,2.65
2023-05-03T23:48:26.905Z,2.55
2023-05-03T23:50:54.300Z,2.83
